Terminal Aerodrome Forecast
Issued by NWS

Home | Current Version | Previous Version | Text Only | Print | Product List | Glossary On
Versions: 1 2 3 4 5 6 7 8 9 10 11 12 13 14 15 16 17 18 19 20 21
000
FTUS41 KALY 220000 AAA
TAFPSF
TAF AMD
KPSF 220015Z 2200/2224 19007KT P6SM SCT020 BKN090
      TEMPO 2200/2202 BKN020
     FM220200 20006KT P6SM VCSH BKN025 BKN050
      TEMPO 2202/2204 29015G25KT 3SM -SHRA BR OVC020
     FM220600 27009KT P6SM BKN025 OVC035
     FM221200 27010G18KT P6SM BKN030 OVC040
     FM221500 29015G25KT P6SM SCT030 BKN040
     FM222300 29010G16KT P6SM SCT040=

USA.gov is the U.S. government's official web portal to all federal, state and local government web resources and services.